createdAt,value
2023-04-12T00:01:32.161Z,99312.34
2023-04-12T00:04:00.235Z,99306.06
2023-04-12T00:06:32.376Z,99291.91
2023-04-12T00:09:00.863Z,99298.16
2023-04-12T00:11:29.240Z,99289.53
2023-04-12T00:13:58.767Z,99281.72
2023-04-12T00:16:26.772Z,99289.59
2023-04-12T00:18:55.391Z,99291.97
2023-04-12T00:21:23.794Z,99288.84
2023-04-12T00:23:51.505Z,99300.22
2023-04-12T00:26:19.125Z,99282.94
2023-04-12T00:28:47.303Z,99279.38
2023-04-12T00:31:16.369Z,99280.56
2023-04-12T00:33:44.088Z,99278.63
2023-04-12T00:36:11.834Z,99272.75
2023-04-12T00:38:39.517Z,99268.38
2023-04-12T00:41:07.888Z,99263.66
2023-04-12T00:43:36.086Z,99259.69
2023-04-12T00:46:04.396Z,99258.91
2023-04-12T00:48:33.556Z,99248.69
2023-04-12T00:51:03.909Z,99210.97
2023-04-12T00:53:32.293Z,99240.03
2023-04-12T00:56:00.048Z,99238.09
2023-04-12T00:58:27.693Z,99236.50
2023-04-12T01:00:55.924Z,99246.66
2023-04-12T01:03:24.792Z,99255.69
2023-04-12T01:06:05.202Z,99251.69
2023-04-12T01:08:45.284Z,99252.41
2023-04-12T01:11:19.383Z,99249.72
2023-04-12T01:13:53.097Z,99239.47
2023-04-12T01:16:29.253Z,99239.84
2023-04-12T01:19:03.773Z,99237.44
2023-04-12T01:21:42.190Z,99248.34
2023-04-12T01:24:24.676Z,99241.53
2023-04-12T01:26:53.028Z,99234.94
2023-04-12T01:29:23.350Z,99231.03
2023-04-12T01:31:54.476Z,99190.78
2023-04-12T01:34:25.632Z,99224.19
2023-04-12T01:36:54.458Z,99220.31
2023-04-12T01:39:22.548Z,99208.03
2023-04-12T01:41:50.812Z,99207.28
2023-04-12T01:44:20.051Z,99211.28
2023-04-12T01:46:49.727Z,99207.63
2023-04-12T01:49:19.022Z,99203.25
2023-04-12T01:51:52.090Z,99194.56
2023-04-12T01:54:23.390Z,99187.53
2023-04-12T01:56:57.735Z,99181.31
2023-04-12T01:59:29.247Z,99132.53
2023-04-12T02:01:59.113Z,99166.31
2023-04-12T02:04:52.296Z,99160.88
2023-04-12T02:07:23.845Z,99155.41
2023-04-12T02:09:51.504Z,99146.84
2023-04-12T02:12:21.115Z,99138.97
2023-04-12T02:14:51.862Z,99136.63
2023-04-12T02:17:21.185Z,99121.69
2023-04-12T02:19:49.154Z,99124.88
2023-04-12T02:22:17.217Z,99118.69
2023-04-12T02:24:44.885Z,99118.97
2023-04-12T02:27:12.558Z,99121.78
2023-04-12T02:29:41.264Z,99113.97
2023-04-12T02:32:09.032Z,99111.63
2023-04-12T02:34:38.440Z,99118.56
2023-04-12T02:37:17.681Z,99108.81
2023-04-12T02:39:45.606Z,99092.47
2023-04-12T02:42:13.648Z,99090.84
2023-04-12T02:44:44.125Z,99077.59
2023-04-12T02:47:13.971Z,99083.81
2023-04-12T02:49:46.817Z,99086.19
2023-04-12T02:52:17.177Z,99068.97
2023-04-12T02:55:06.938Z,99064.72
2023-04-12T02:57:34.885Z,99053.75
2023-04-12T03:00:09.025Z,99043.59
2023-04-12T03:02:45.904Z,99046.75
2023-04-12T03:05:23.485Z,99039.28
2023-04-12T03:07:52.573Z,99031.50
2023-04-12T03:10:25.499Z,99035.41
2023-04-12T03:13:02.396Z,99019.34
2023-04-12T03:15:34.909Z,99020.06
2023-04-12T03:18:03.277Z,99010.66
2023-04-12T03:20:38.997Z,99018.91
2023-04-12T03:23:09.564Z,99015.31
2023-04-12T03:25:42.425Z,99018.84
2023-04-12T03:28:39.328Z,99014.47
2023-04-12T03:31:08.383Z,99006.00
2023-04-12T03:33:47.065Z,99007.09
2023-04-12T03:36:26.974Z,98996.94
2023-04-12T03:39:05.853Z,98994.22
2023-04-12T03:41:35.724Z,98981.25
2023-04-12T03:44:07.249Z,98973.03
2023-04-12T03:46:36.613Z,98973.06
2023-04-12T03:49:09.070Z,98968.34
2023-04-12T03:51:42.528Z,98960.56
2023-04-12T03:54:11.129Z,98941.38
2023-04-12T03:56:48.705Z,98944.50
2023-04-12T03:59:24.580Z,98944.53
2023-04-12T04:01:52.306Z,98941.72
2023-04-12T04:04:20.934Z,98936.28
2023-04-12T04:06:52.276Z,98923.03
2023-04-12T04:09:20.295Z,98922.19
2023-04-12T04:11:50.031Z,98917.53
2023-04-12T04:14:18.668Z,98914.38
2023-04-12T04:16:47.101Z,98899.09
2023-04-12T04:19:15.697Z,98895.13
2023-04-12T04:21:46.000Z,98892.03
2023-04-12T04:24:15.275Z,98887.75
2023-04-12T04:26:47.322Z,98877.91
2023-04-12T04:29:23.707Z,98866.53
2023-04-12T04:31:53.221Z,98865.41
2023-04-12T04:34:23.206Z,98861.06
2023-04-12T04:36:53.539Z,98851.31
2023-04-12T04:39:27.180Z,98845.47
2023-04-12T04:41:57.403Z,98838.41
2023-04-12T04:44:39.358Z,98841.50
2023-04-12T04:47:12.048Z,98827.03
2023-04-12T04:49:39.703Z,98829.72
2023-04-12T04:52:22.817Z,98828.97
2023-04-12T04:54:57.372Z,98830.13
2023-04-12T04:57:27.387Z,98815.28
2023-04-12T04:59:57.512Z,98818.00
2023-04-12T05:02:26.039Z,98816.44
2023-04-12T05:04:56.296Z,98807.41
2023-04-12T05:07:27.105Z,98821.13
2023-04-12T05:09:56.418Z,98818.03
2023-04-12T05:12:24.128Z,98812.53
2023-04-12T05:15:10.713Z,98803.56
2023-04-12T05:17:39.720Z,98799.25
2023-04-12T05:20:10.615Z,98790.69
2023-04-12T05:22:39.615Z,98793.03
2023-04-12T05:25:09.734Z,98785.53
2023-04-12T05:27:45.618Z,98772.63
2023-04-12T05:30:16.369Z,98780.91
2023-04-12T05:32:45.522Z,98780.06
2023-04-12T05:35:15.253Z,98771.91
2023-04-12T05:37:44.616Z,98769.50
2023-04-12T05:40:15.802Z,98775.81
2023-04-12T05:42:43.977Z,98769.97
2023-04-12T05:45:12.721Z,98754.31
2023-04-12T05:47:40.844Z,98754.69
2023-04-12T05:50:09.263Z,98757.44
2023-04-12T05:52:37.756Z,98743.75
2023-04-12T05:55:07.635Z,98739.84
2023-04-12T05:57:40.171Z,98728.91
2023-04-12T06:00:13.149Z,98715.63
2023-04-12T06:02:42.338Z,98724.59
2023-04-12T06:05:11.006Z,98710.16
2023-04-12T06:07:39.373Z,98707.03
2023-04-12T06:10:08.599Z,98693.72
2023-04-12T06:12:36.679Z,98689.81
2023-04-12T06:15:07.334Z,98681.63
2023-04-12T06:17:35.410Z,98685.09
2023-04-12T06:20:05.852Z,98668.69
2023-04-12T06:22:33.762Z,98667.91
2023-04-12T06:25:02.227Z,98664.00
2023-04-12T06:27:30.267Z,98655.78
2023-04-12T06:29:58.354Z,98652.28
2023-04-12T06:32:27.521Z,98668.72
2023-04-12T06:34:56.181Z,98651.09
2023-04-12T06:37:23.883Z,98660.09
2023-04-12T06:39:52.501Z,98656.97
2023-04-12T06:42:20.418Z,98649.13
2023-04-12T06:44:48.587Z,98646.00
2023-04-12T06:47:16.581Z,98651.47
2023-04-12T06:49:45.612Z,98644.81
2023-04-12T06:52:13.207Z,98638.16
2023-04-12T06:54:40.844Z,98625.22
2023-04-12T06:57:10.018Z,98625.97
2023-04-12T06:59:37.728Z,98628.75
2023-04-12T07:02:06.707Z,98628.34
2023-04-12T07:04:34.864Z,98624.78
2023-04-12T07:07:03.900Z,98613.78
2023-04-12T07:09:32.213Z,98620.78
2023-04-12T07:11:59.923Z,98608.63
2023-04-12T07:14:27.606Z,98618.81
2023-04-12T07:16:56.003Z,98620.03
2023-04-12T07:19:23.915Z,98610.59
2023-04-12T07:21:51.522Z,98593.38
2023-04-12T07:24:20.506Z,98587.06
2023-04-12T07:26:48.243Z,98581.06
2023-04-12T07:29:16.970Z,98572.38
2023-04-12T07:31:45.625Z,98521.56
2023-04-12T07:34:13.471Z,98560.28
2023-04-12T07:36:41.172Z,98557.06
2023-04-12T07:39:11.866Z,98545.34
2023-04-12T07:41:42.252Z,98539.16
2023-04-12T07:44:09.962Z,98520.75
2023-04-12T07:46:37.645Z,98532.75
2023-04-12T07:49:05.374Z,98491.38
2023-04-12T07:51:33.475Z,98507.66
2023-04-12T07:54:01.447Z,98503.78
2023-04-12T07:56:29.059Z,98502.91
2023-04-12T07:58:58.202Z,98499.78
2023-04-12T08:01:26.006Z,98513.09
2023-04-12T08:03:53.836Z,98496.97
2023-04-12T08:06:21.542Z,98493.09
2023-04-12T08:08:49.366Z,98491.84
2023-04-12T08:11:16.953Z,98479.63
2023-04-12T08:13:44.590Z,98494.13
2023-04-12T08:16:13.740Z,98480.88
2023-04-12T08:18:41.601Z,98478.25
2023-04-12T08:21:09.328Z,98487.84
2023-04-12T08:23:37.041Z,98487.59
2023-04-12T08:26:04.913Z,98492.34
2023-04-12T08:28:33.451Z,98474.16
2023-04-12T08:31:01.290Z,98473.69
2023-04-12T08:33:30.359Z,98466.31
2023-04-12T08:35:59.055Z,98461.69
2023-04-12T08:38:41.438Z,98470.06
2023-04-12T08:41:13.777Z,98462.28
2023-04-12T08:43:45.298Z,98467.94
2023-04-12T08:46:15.500Z,98459.72
2023-04-12T08:48:46.268Z,98468.28
2023-04-12T08:51:15.996Z,98471.63
2023-04-12T08:53:44.060Z,98470.81
2023-04-12T08:56:13.261Z,98477.19
2023-04-12T08:58:42.962Z,98477.03
2023-04-12T09:01:14.030Z,98474.50
2023-04-12T09:03:43.461Z,98474.03
2023-04-12T09:06:12.873Z,98461.06
2023-04-12T09:08:53.321Z,98453.50
2023-04-12T09:11:26.355Z,98452.53
2023-04-12T09:13:55.925Z,98467.38
2023-04-12T09:16:37.359Z,98453.22
2023-04-12T09:19:05.523Z,98454.13
2023-04-12T09:21:35.660Z,98454.69
2023-04-12T09:24:06.097Z,98456.91
2023-04-12T09:26:33.761Z,98452.03
2023-04-12T09:29:01.458Z,98443.16
2023-04-12T09:31:29.159Z,98436.59
2023-04-12T09:34:07.698Z,98423.28
2023-04-12T09:36:40.218Z,98432.72
2023-04-12T09:39:08.946Z,98421.53
2023-04-12T09:41:36.685Z,98410.38
2023-04-12T09:44:04.864Z,98399.13
2023-04-12T09:46:32.627Z,98378.00
2023-04-12T09:49:00.454Z,98404.72
2023-04-12T09:51:31.134Z,98407.06
2023-04-12T09:54:01.945Z,98397.78
2023-04-12T09:56:32.070Z,98399.44
2023-04-12T09:59:02.862Z,98400.47
2023-04-12T10:01:33.499Z,98399.81
2023-04-12T10:04:02.460Z,98394.81
2023-04-12T10:06:31.325Z,98390.84
2023-04-12T10:09:02.904Z,98386.78
2023-04-12T10:11:30.906Z,98394.03
2023-04-12T10:13:59.781Z,98390.66
2023-04-12T10:16:28.822Z,98385.56
2023-04-12T10:18:57.094Z,98399.81
2023-04-12T10:21:24.936Z,98386.44
2023-04-12T10:23:52.643Z,98382.81
2023-04-12T10:26:22.116Z,98377.84
2023-04-12T10:29:26.260Z,98365.50
2023-04-12T10:31:54.794Z,98370.91
2023-04-12T10:34:29.617Z,98369.59
2023-04-12T10:36:58.289Z,98366.88
2023-04-12T10:39:40.455Z,98371.84
2023-04-12T10:42:23.951Z,98365.66
2023-04-12T10:44:53.019Z,98364.72
2023-04-12T10:48:01.815Z,98364.09
2023-04-12T10:50:31.243Z,98358.16
2023-04-12T10:53:26.690Z,98356.09
2023-04-12T10:55:54.618Z,98358.59
2023-04-12T10:58:58.510Z,98369.50
2023-04-12T11:01:29.014Z,98333.94
2023-04-12T11:04:18.593Z,98354.88
2023-04-12T11:07:10.090Z,98338.88
2023-04-12T11:09:58.363Z,98352.09
2023-04-12T11:12:35.454Z,98347.25
2023-04-12T11:15:06.121Z,98345.41
2023-04-12T11:17:55.189Z,98334.28
2023-04-12T11:20:23.222Z,98342.28
2023-04-12T11:22:51.737Z,98346.81
2023-04-12T11:25:19.557Z,98346.03
2023-04-12T11:27:51.448Z,98340.50
2023-04-12T11:30:20.682Z,98348.97
2023-04-12T11:32:48.640Z,98323.72
2023-04-12T11:35:17.043Z,98328.44
2023-04-12T11:37:45.142Z,98321.44
2023-04-12T11:40:13.061Z,98329.94
2023-04-12T11:42:41.490Z,98335.66
2023-04-12T11:45:16.623Z,98319.91
2023-04-12T11:47:47.160Z,98296.38
2023-04-12T11:50:29.371Z,98322.09
2023-04-12T11:53:09.854Z,98323.72
2023-04-12T11:55:37.544Z,98316.78
2023-04-12T11:58:05.241Z,98307.56
2023-04-12T12:00:33.084Z,98312.25
2023-04-12T12:03:07.197Z,98307.22
2023-04-12T12:05:38.312Z,98312.69
2023-04-12T12:08:07.837Z,98305.78
2023-04-12T12:10:44.142Z,98301.97
2023-04-12T12:13:19.865Z,98304.69
2023-04-12T12:15:47.624Z,98300.66
2023-04-12T12:18:16.823Z,98306.22
2023-04-12T12:20:50.701Z,98297.91
2023-04-12T12:23:30.073Z,98286.59
2023-04-12T12:26:14.417Z,98288.94
2023-04-12T12:28:50.875Z,98299.44
2023-04-12T12:31:21.553Z,98293.06
2023-04-12T12:33:54.863Z,98297.63
2023-04-12T12:36:32.056Z,98297.75
2023-04-12T12:39:06.750Z,98297.28
2023-04-12T12:41:34.570Z,98292.38
2023-04-12T12:44:02.533Z,98279.91
2023-04-12T12:46:44.652Z,98289.44
2023-04-12T12:49:19.861Z,98284.75
2023-04-12T12:51:47.721Z,98287.09
2023-04-12T12:54:25.067Z,98283.03
2023-04-12T12:56:59.841Z,98283.56
2023-04-12T12:59:27.454Z,98288.84
2023-04-12T13:01:55.154Z,98295.88
2023-04-12T13:04:24.282Z,98288.13
2023-04-12T13:06:52.985Z,98284.81
2023-04-12T13:09:20.838Z,98273.59
2023-04-12T13:11:48.456Z,98275.88
2023-04-12T13:14:16.776Z,98271.44
2023-04-12T13:16:46.183Z,98270.81
2023-04-12T13:19:13.929Z,98256.66
2023-04-12T13:21:42.965Z,98248.78
2023-04-12T13:24:11.210Z,98239.03
2023-04-12T13:26:38.889Z,98248.38
2023-04-12T13:29:06.575Z,98239.53
2023-04-12T13:31:34.314Z,98227.56
2023-04-12T13:34:02.050Z,98231.03
2023-04-12T13:36:29.721Z,98222.88
2023-04-12T13:38:58.822Z,98229.50
2023-04-12T13:41:26.872Z,98220.47
2023-04-12T13:43:54.546Z,98224.06
2023-04-12T13:46:22.196Z,98218.81
2023-04-12T13:48:49.846Z,98216.91
2023-04-12T13:51:17.956Z,98225.16
2023-04-12T13:53:45.848Z,98219.72
2023-04-12T13:56:15.872Z,98221.00
2023-04-12T13:58:44.024Z,98225.47
2023-04-12T14:01:13.348Z,98226.59
2023-04-12T14:03:41.574Z,98225.13
2023-04-12T14:06:09.616Z,98228.88
2023-04-12T14:08:37.402Z,98249.91
2023-04-12T14:11:05.394Z,98264.44
2023-04-12T14:13:34.524Z,98253.44
2023-04-12T14:16:02.201Z,98249.97
2023-04-12T14:18:29.918Z,98254.91
2023-04-12T14:20:57.644Z,98251.19
2023-04-12T14:23:26.073Z,98240.06
2023-04-12T14:25:54.126Z,98225.41
2023-04-12T14:28:24.150Z,98224.66
2023-04-12T14:30:53.166Z,98222.59
2023-04-12T14:33:20.828Z,98229.91
2023-04-12T14:35:48.630Z,98230.00
2023-04-12T14:38:16.279Z,98237.69
2023-04-12T14:40:43.907Z,98237.94
2023-04-12T14:43:11.578Z,98237.56
2023-04-12T14:45:39.186Z,98245.78
2023-04-12T14:48:08.410Z,98240.69
2023-04-12T14:50:36.037Z,98242.59
2023-04-12T14:53:03.660Z,98249.63
2023-04-12T14:55:31.593Z,98247.56
2023-04-12T14:57:59.318Z,98199.03
2023-04-12T15:00:29.233Z,98255.75
2023-04-12T15:02:57.469Z,98249.13
2023-04-12T15:05:27.296Z,98261.53
2023-04-12T15:07:55.274Z,98274.63
2023-04-12T15:10:23.028Z,98267.72
2023-04-12T15:12:50.775Z,98280.72
2023-04-12T15:15:18.613Z,98282.50
2023-04-12T15:17:46.334Z,98300.44
2023-04-12T15:20:17.030Z,98298.63
2023-04-12T15:22:46.074Z,98292.09
2023-04-12T15:25:13.992Z,98294.41
2023-04-12T15:27:41.813Z,98292.09
2023-04-12T15:30:12.800Z,98301.59
2023-04-12T15:32:42.397Z,98305.03
2023-04-12T15:37:41.899Z,98312.28
2023-04-12T15:40:13.582Z,98321.69
2023-04-12T15:42:43.281Z,98325.56
2023-04-12T15:45:11.904Z,98331.16
2023-04-12T15:47:41.250Z,98321.75
2023-04-12T15:50:10.075Z,98331.25
2023-04-12T15:52:37.784Z,98328.75
2023-04-12T15:55:06.081Z,98325.63
2023-04-12T15:57:37.108Z,98324.25
2023-04-12T16:00:13.852Z,98323.41
2023-04-12T16:02:42.090Z,98314.59
2023-04-12T16:05:10.127Z,98315.13
2023-04-12T16:07:40.444Z,98308.25
2023-04-12T16:10:09.030Z,98308.38
2023-04-12T16:12:38.035Z,98309.94
2023-04-12T16:15:06.884Z,98292.22
2023-04-12T16:17:34.875Z,98297.41
2023-04-12T16:20:02.662Z,98303.03
2023-04-12T16:22:30.379Z,98302.59
2023-04-12T16:24:58.358Z,98310.84
2023-04-12T16:27:29.364Z,98293.91
2023-04-12T16:29:58.668Z,98301.31
2023-04-12T16:32:26.380Z,98302.63
2023-04-12T16:34:54.093Z,98302.63
2023-04-12T16:37:21.941Z,98298.47
2023-04-12T16:39:50.824Z,98299.22
2023-04-12T16:42:21.710Z,98294.28
2023-04-12T16:44:49.349Z,98297.56
2023-04-12T16:47:18.488Z,98291.78
2023-04-12T16:49:46.679Z,98288.06
2023-04-12T16:52:15.358Z,98288.88
2023-04-12T16:54:43.131Z,98286.00
2023-04-12T16:57:11.710Z,98288.75
2023-04-12T16:59:39.763Z,98297.22
2023-04-12T17:02:07.889Z,98297.22
2023-04-12T17:04:37.361Z,98291.97
2023-04-12T17:07:05.549Z,98292.03
2023-04-12T17:09:33.303Z,98302.22
2023-04-12T17:12:01.171Z,98303.56
2023-04-12T17:14:29.750Z,98314.41
2023-04-12T17:16:57.584Z,98320.78
2023-04-12T17:19:25.888Z,98330.41
2023-04-12T17:21:55.036Z,98314.41
2023-04-12T17:24:25.411Z,98311.75
2023-04-12T17:26:53.707Z,98295.28
2023-04-12T17:29:21.750Z,98296.75
2023-04-12T17:31:53.157Z,98317.31
2023-04-12T17:34:22.766Z,98322.75
2023-04-12T17:36:50.361Z,98337.50
2023-04-12T17:39:19.326Z,98342.13
2023-04-12T17:41:47.843Z,98351.53
2023-04-12T17:44:15.505Z,98350.06
2023-04-12T17:46:44.141Z,98353.66
2023-04-12T17:49:11.771Z,98348.44
2023-04-12T17:51:39.410Z,98356.06
2023-04-12T17:54:07.753Z,98352.66
2023-04-12T17:56:36.751Z,98351.53
2023-04-12T17:59:05.531Z,98364.59
2023-04-12T18:01:34.810Z,98356.13
2023-04-12T18:04:05.562Z,98346.66
2023-04-12T18:06:33.927Z,98345.66
2023-04-12T18:09:02.721Z,98341.66
2023-04-12T18:11:30.441Z,98345.81
2023-04-12T18:13:59.778Z,98351.91
2023-04-12T18:16:28.009Z,98359.56
2023-04-12T18:18:55.969Z,98346.38
2023-04-12T18:21:23.833Z,98357.63
2023-04-12T18:23:52.063Z,98365.53
2023-04-12T18:26:19.775Z,98351.97
2023-04-12T18:28:47.388Z,98355.41
2023-04-12T18:31:16.616Z,98342.28
2023-04-12T18:33:44.332Z,98362.38
2023-04-12T18:36:12.230Z,98331.72
2023-04-12T18:38:40.190Z,98369.63
2023-04-12T18:41:09.132Z,98377.31
2023-04-12T18:43:36.758Z,98385.69
2023-04-12T18:46:04.596Z,98397.59
2023-04-12T18:48:35.387Z,98393.97
2023-04-12T18:51:03.116Z,98416.44
2023-04-12T18:53:31.003Z,98426.28
2023-04-12T18:56:08.484Z,98433.72
2023-04-12T18:58:53.984Z,98440.81
2023-04-12T19:01:23.163Z,98429.03
2023-04-12T19:03:52.344Z,98433.31
2023-04-12T19:06:20.272Z,98430.16
2023-04-12T19:08:49.555Z,98421.91
2023-04-12T19:11:17.244Z,98424.66
2023-04-12T19:13:44.870Z,98423.97
2023-04-12T19:16:12.712Z,98410.41
2023-04-12T19:18:40.388Z,98423.09
2023-04-12T19:21:09.913Z,98493.09
2023-04-12T19:23:38.077Z,98506.34
2023-04-12T19:26:07.584Z,98523.72
2023-04-12T19:28:35.581Z,98533.53
2023-04-12T19:31:05.053Z,98511.13
2023-04-12T19:33:32.776Z,98499.06
2023-04-12T19:36:00.459Z,98517.44
2023-04-12T19:38:29.467Z,98518.28
2023-04-12T19:40:57.089Z,98521.09
2023-04-12T19:43:25.634Z,98521.16
2023-04-12T19:45:53.474Z,98531.34
2023-04-12T19:48:21.280Z,98534.13
2023-04-12T19:50:49.033Z,98529.88
2023-04-12T19:53:18.002Z,98536.91
2023-04-12T19:55:46.998Z,98543.97
2023-04-12T19:58:15.368Z,98550.59
2023-04-12T20:00:43.411Z,98554.13
2023-04-12T20:03:11.516Z,98546.72
2023-04-12T20:05:39.908Z,98550.22
2023-04-12T20:08:07.745Z,98545.94
2023-04-12T20:10:35.942Z,98549.44
2023-04-12T20:13:09.584Z,98549.84
2023-04-12T20:15:38.859Z,98540.03
2023-04-12T20:18:08.085Z,98549.06
2023-04-12T20:20:35.787Z,98548.25
2023-04-12T20:23:03.485Z,98553.75
2023-04-12T20:25:33.878Z,98566.25
2023-04-12T20:28:02.662Z,98566.25
2023-04-12T20:30:31.927Z,98572.50
2023-04-12T20:33:00.910Z,98578.75
2023-04-12T20:35:28.978Z,98576.41
2023-04-12T20:37:56.740Z,98583.06
2023-04-12T20:40:27.036Z,98583.06
2023-04-12T20:42:54.741Z,98588.13
2023-04-12T20:45:23.307Z,98591.28
2023-04-12T20:47:52.356Z,98595.94
2023-04-12T20:50:22.955Z,98580.69
2023-04-12T20:52:51.878Z,98591.25
2023-04-12T20:55:19.803Z,98597.91
2023-04-12T20:57:47.629Z,98604.94
2023-04-12T21:00:17.847Z,98605.72
2023-04-12T21:02:46.954Z,98608.06
2023-04-12T21:05:17.116Z,98603.38
2023-04-12T21:07:46.664Z,98615.09
2023-04-12T21:10:15.100Z,98617.84
2023-04-12T21:12:44.922Z,98611.59
2023-04-12T21:15:13.378Z,98617.84
2023-04-12T21:17:41.393Z,98628.81
2023-04-12T21:20:13.380Z,98615.50
2023-04-12T21:22:43.929Z,98624.13
2023-04-12T21:25:13.562Z,98621.38
2023-04-12T21:27:42.501Z,98630.75
2023-04-12T21:30:12.547Z,98597.91
2023-04-12T21:32:41.026Z,98615.09
2023-04-12T21:35:10.987Z,98619.00
2023-04-12T21:37:39.360Z,98629.19
2023-04-12T21:40:10.054Z,98618.63
2023-04-12T21:42:38.360Z,98608.06
2023-04-12T21:45:08.204Z,98620.94
2023-04-12T21:47:36.737Z,98622.91
2023-04-12T21:50:04.706Z,98622.50
2023-04-12T21:52:32.436Z,98614.66
2023-04-12T21:55:00.159Z,98627.97
2023-04-12T21:57:31.776Z,98624.81
2023-04-12T21:59:59.540Z,98634.97
2023-04-12T22:02:27.754Z,98636.56
2023-04-12T22:04:55.558Z,98637.38
2023-04-12T22:07:23.298Z,98645.19
2023-04-12T22:09:53.435Z,98649.13
2023-04-12T22:12:21.717Z,98646.00
2023-04-12T22:14:50.705Z,98651.88
2023-04-12T22:17:18.869Z,98657.34
2023-04-12T22:19:46.793Z,98660.09
2023-04-12T22:22:15.367Z,98663.59
2023-04-12T22:24:43.998Z,98660.06
2023-04-12T22:27:11.912Z,98668.69
2023-04-12T22:29:39.642Z,98668.69
2023-04-12T22:32:09.379Z,98669.88
2023-04-12T22:34:37.747Z,98672.22
2023-04-12T22:37:06.906Z,98672.22
2023-04-12T22:39:34.657Z,98672.22
2023-04-12T22:42:04.036Z,98679.25
2023-04-12T22:44:37.916Z,98682.75
2023-04-12T22:47:07.288Z,98679.63
2023-04-12T22:49:46.389Z,98680.78
2023-04-12T22:52:14.001Z,98685.88
2023-04-12T22:54:41.685Z,98681.22
2023-04-12T22:57:09.352Z,98676.47
2023-04-12T22:59:37.863Z,98673.34
2023-04-12T23:02:06.469Z,98680.78
2023-04-12T23:04:35.575Z,98678.88
2023-04-12T23:07:03.275Z,98680.41
2023-04-12T23:09:32.804Z,98664.78
2023-04-12T23:12:00.582Z,98667.13
2023-04-12T23:14:29.734Z,98674.94
2023-04-12T23:16:57.899Z,98680.44
2023-04-12T23:19:25.933Z,98668.69
2023-04-12T23:21:55.401Z,98680.41
2023-04-12T23:24:23.113Z,98679.63
2023-04-12T23:26:50.820Z,98676.50
2023-04-12T23:29:18.517Z,98680.41
2023-04-12T23:31:46.256Z,98674.16
2023-04-12T23:34:13.950Z,98672.56
2023-04-12T23:36:41.573Z,98673.38
2023-04-12T23:39:11.189Z,98671.03
2023-04-12T23:41:40.700Z,98680.81
2023-04-12T23:44:09.015Z,98666.75
2023-04-12T23:46:36.682Z,98676.53
2023-04-12T23:49:04.369Z,98672.59
2023-04-12T23:51:32.416Z,98674.16
2023-04-12T23:54:00.655Z,98672.63
2023-04-12T23:56:29.894Z,98664.00
2023-04-12T23:58:57.526Z,98665.94
